Sichem Hawk — 9HSE9 — position and weather

sailwx.info

Track history (hours):
 
Tides and Currents Weather Stations Pressure Air Temp Water Temp Dewpoint Dewpoint Depression Visibility Wind Speed Wind Dir Waves Ship Positions

Sichem Hawk

Last reported at 2017-Nov-24 13:00 UTC. Time now 2017-Nov-24 13:11 UTC.
Position N 44°34' E 013°06'.

Length 171 m; draft 8.8 m.

Type: Tanker. MMSI: 249445000.

Date/timePositionNaut miles runAvg speedWind from/ knotsBaromVisibWave heightAir tempDewpointWater temp
2017-Nov-24 13:00N 44°34' E 013°06'714.4
2017-Nov-24 12:30N 44°27' E 013°10'714.3
2017-Nov-24 12:00N 44°21' E 013°13'713.9
2017-Nov-24 11:30N 44°15' E 013°19'37511.4
2017-Nov-23 02:27N 38°55' E 017°40'3514.7
2017-Nov-23 00:06N 38°27' E 017°13'  
2017-Nov-19 20:43N 36°05' W 005°09'314.0
2017-Nov-19 20:29N 36°04' W 005°13'613.2
2017-Nov-19 20:00N 36°04' W 005°20'4 8.9
2017-Nov-19 19:30N 36°08' W 005°24'2 0.0
2017-Nov-17 23:36N 36°09' W 005°25'0 0.1
2017-Nov-17 23:30N 36°09' W 005°25'0 0.1
2017-Nov-17 22:48N 36°09' W 005°25'0 0.1
2017-Nov-17 22:18N 36°09' W 005°25'0 0.2
2017-Nov-17 21:49N 36°09' W 005°25'0 1.1
2017-Nov-17 21:29N 36°09' W 005°25'1 2.6
2017-Nov-17 21:00N 36°08' W 005°24'4 6.3
2017-Nov-17 20:21N 36°05' W 005°21'411.7
2017-Nov-17 20:01N 36°07' W 005°17'1 1.5
2017-Nov-17 19:31N 36°07' W 005°16'0 0.2
2017-Nov-17 19:01N 36°07' W 005°16'2 3.2
2017-Nov-17 18:31N 36°06' W 005°17'2 4.3
2017-Nov-17 18:01N 36°04' W 005°19'2 4.3
2017-Nov-17 17:30N 36°04' W 005°21'510.0
2017-Nov-17 17:01N 35°59' W 005°24'612.1
2017-Nov-17 16:30N 35°57' W 005°31'19212.6
2017-Nov-17 01:17N 36°39' W 009°23'413.2
2017-Nov-17 01:00N 36°41' W 009°26'713.6
2017-Nov-17 00:30N 36°46' W 009°32'713.0
2017-Nov-17 00:00N 36°53' W 009°34'713.1
2017-Nov-16 23:30N 36°59' W 009°36'1413.2
2017-Nov-16 22:28N 37°12' W 009°40'613.3
2017-Nov-16 22:00N 37°18' W 009°42'713.4
2017-Nov-16 21:30N 37°25' W 009°44'713.6
2017-Nov-16 21:00N 37°31' W 009°46'713.9
2017-Nov-16 20:30N 37°38' W 009°48'713.5
2017-Nov-16 20:00N 37°45' W 009°49'713.4
2017-Nov-16 19:30N 37°51' W 009°51'713.3
2017-Nov-16 19:00N 37°58' W 009°53'713.2
2017-Nov-16 18:30N 38°04' W 009°55'713.3
2017-Nov-16 18:00N 38°11' W 009°57'713.6
2017-Nov-16 17:30N 38°17' W 009°59'714.1
2017-Nov-16 17:00N 38°24' W 010°01'714.2
2017-Nov-16 16:30N 38°31' W 010°03'713.5
2017-Nov-16 16:00N 38°38' W 010°05'713.4
2017-Nov-16 15:30N 38°44' W 010°07'713.5
2017-Nov-16 15:00N 38°51' W 010°08'713.4
2017-Nov-16 14:30N 38°57' W 010°10'713.7
2017-Nov-16 14:00N 39°03' W 010°14'713.3
2017-Nov-16 13:30N 39°09' W 010°18'713.4
2017-Nov-16 13:00N 39°15' W 010°22'713.7
2017-Nov-16 12:30N 39°21' W 010°27'30412.5
2017-Nov-15 12:07N 44°03' W 007°55'315.0
2017-Nov-15 11:57N 44°04' W 007°52'915.2
2017-Nov-15 11:22N 44°06' W 007°40'27415.3
2017-Nov-14 17:32N 45°34' W 001°34'015.3
2017-Nov-14 17:31N 45°34' W 001°34'815.8
2017-Nov-14 16:58N 45°36' W 001°22'816.6
2017-Nov-14 16:29N 45°40' W 001°12'713.8
2017-Nov-14 16:00N 45°36' W 001°04'613.0
2017-Nov-14 15:30N 45°31' W 000°58'714.3
2017-Nov-14 15:00N 45°25' W 000°52'613.2
2017-Nov-14 14:30N 45°19' W 000°47'611.8
2017-Nov-14 13:59N 45°13' W 000°44'  
Track history (hours):
 
Tides and Currents Weather Stations Pressure Air Temp Water Temp Dewpoint Dewpoint Depression Visibility Wind Speed Wind Dir Waves Ship Positions

Sichem Hawk

Last reported at 2017-Nov-24 13:00 UTC. Time now 2017-Nov-24 13:11 UTC.
Position N 44°34' E 013°06'.

Length 171 m; draft 8.8 m.

Type: Tanker. MMSI: 249445000.

Date/timePositionNaut miles runAvg speedWind from/ knotsBaromVisibWave heightAir tempDewpointWater temp
2017-Nov-24 13:00N 44°34' E 013°06'714.4
2017-Nov-24 12:30N 44°27' E 013°10'714.3
2017-Nov-24 12:00N 44°21' E 013°13'713.9
2017-Nov-24 11:30N 44°15' E 013°19'37511.4
2017-Nov-23 02:27N 38°55' E 017°40'3514.7
2017-Nov-23 00:06N 38°27' E 017°13'  
2017-Nov-19 20:43N 36°05' W 005°09'314.0
2017-Nov-19 20:29N 36°04' W 005°13'613.2
2017-Nov-19 20:00N 36°04' W 005°20'4 8.9
2017-Nov-19 19:30N 36°08' W 005°24'2 0.0
2017-Nov-17 23:36N 36°09' W 005°25'0 0.1
2017-Nov-17 23:30N 36°09' W 005°25'0 0.1
2017-Nov-17 22:48N 36°09' W 005°25'0 0.1
2017-Nov-17 22:18N 36°09' W 005°25'0 0.2
2017-Nov-17 21:49N 36°09' W 005°25'0 1.1
2017-Nov-17 21:29N 36°09' W 005°25'1 2.6
2017-Nov-17 21:00N 36°08' W 005°24'4 6.3
2017-Nov-17 20:21N 36°05' W 005°21'411.7
2017-Nov-17 20:01N 36°07' W 005°17'1 1.5
2017-Nov-17 19:31N 36°07' W 005°16'0 0.2
2017-Nov-17 19:01N 36°07' W 005°16'2 3.2
2017-Nov-17 18:31N 36°06' W 005°17'2 4.3
2017-Nov-17 18:01N 36°04' W 005°19'2 4.3
2017-Nov-17 17:30N 36°04' W 005°21'510.0
2017-Nov-17 17:01N 35°59' W 005°24'612.1
2017-Nov-17 16:30N 35°57' W 005°31'19212.6
2017-Nov-17 01:17N 36°39' W 009°23'413.2
2017-Nov-17 01:00N 36°41' W 009°26'713.6
2017-Nov-17 00:30N 36°46' W 009°32'713.0
2017-Nov-17 00:00N 36°53' W 009°34'713.1
2017-Nov-16 23:30N 36°59' W 009°36'1413.2
2017-Nov-16 22:28N 37°12' W 009°40'613.3
2017-Nov-16 22:00N 37°18' W 009°42'713.4
2017-Nov-16 21:30N 37°25' W 009°44'713.6
2017-Nov-16 21:00N 37°31' W 009°46'713.9
2017-Nov-16 20:30N 37°38' W 009°48'713.5
2017-Nov-16 20:00N 37°45' W 009°49'713.4
2017-Nov-16 19:30N 37°51' W 009°51'713.3
2017-Nov-16 19:00N 37°58' W 009°53'713.2
2017-Nov-16 18:30N 38°04' W 009°55'713.3
2017-Nov-16 18:00N 38°11' W 009°57'713.6
2017-Nov-16 17:30N 38°17' W 009°59'714.1
2017-Nov-16 17:00N 38°24' W 010°01'714.2
2017-Nov-16 16:30N 38°31' W 010°03'713.5
2017-Nov-16 16:00N 38°38' W 010°05'713.4
2017-Nov-16 15:30N 38°44' W 010°07'713.5
2017-Nov-16 15:00N 38°51' W 010°08'713.4
2017-Nov-16 14:30N 38°57' W 010°10'713.7
2017-Nov-16 14:00N 39°03' W 010°14'713.3
2017-Nov-16 13:30N 39°09' W 010°18'713.4
2017-Nov-16 13:00N 39°15' W 010°22'713.7
2017-Nov-16 12:30N 39°21' W 010°27'30412.5
2017-Nov-15 12:07N 44°03' W 007°55'315.0
2017-Nov-15 11:57N 44°04' W 007°52'915.2
2017-Nov-15 11:22N 44°06' W 007°40'27415.3
2017-Nov-14 17:32N 45°34' W 001°34'015.3
2017-Nov-14 17:31N 45°34' W 001°34'815.8
2017-Nov-14 16:58N 45°36' W 001°22'816.6
2017-Nov-14 16:29N 45°40' W 001°12'713.8
2017-Nov-14 16:00N 45°36' W 001°04'613.0
2017-Nov-14 15:30N 45°31' W 000°58'714.3
2017-Nov-14 15:00N 45°25' W 000°52'613.2
2017-Nov-14 14:30N 45°19' W 000°47'611.8
2017-Nov-14 13:59N 45°13' W 000°44'  

Dump ship's entire track history